Holland, MI (49423)

10:03 PM EDT on July 28, 2016 (GMT -0400)
Holland Aquatic Center | | Change Station

Elev 627 ft 42.78 °N, 86.12 °W | Updated 2 minutes ago

Clear
Clear
71.9 °F
Feels Like 71 °F
N
0.0
Wind Variable Wind from SSE

Today
High -- | Low -- °F
--% Chance of Precip.
Yesterday
High -- | Low -- °F
Precip. -- in
Pressure 29.92 in
Visibility 10.0 miles
Clouds Clear
Heat Index 71 °F
Dew Point 67 °F
Humidity 85%
Rainfall 0.50 in
Snow Depth Not available.
6:32 AM 9:08 PM
Waning Crescent, 26% visible
METAR KBIV 290153Z AUTO 00000KT 10SM CLR 22/20 A2993 RMK AO2 SLP132 T02170200
Pressure 29.92 in
Visibility 10.0 miles
Clouds Clear
Heat Index 71 °F
Dew Point 67 °F
Humidity 85%
Rainfall 0.50 in
Snow Depth Not available.
6:32 AM 9:08 PM
Waning Crescent, 26% visible
METAR KBIV 290153Z AUTO 00000KT 10SM CLR 22/20 A2993 RMK AO2 SLP132 T02170200

10-Day Weather Forecast

Almanac

Astronomy

Jul. 28, 2016 Rise Set
Actual Time
Civil Twilight
Nautical Twilight
Astronomical Twilight
Moon
Length of Visible Light
Length of Day
Tomorrow will be .
, % of the Moon is Illuminated

Today's Extremes

State Highs State Lows

Community

WunderPhotos

Upload Photos

1,928,265 photos uploaded!

WunderBlog® & News

Nearby

Air Quality

  Air Quality AQ Index Pollutant
Not available.

Snow Depth

Station Depth Elevation

Earthquake Activity

City Distance Mag. Time & Date
Minimum magnitude displayed is 2.5.

Coastal Water Temperatures

Place Temperature

Stations

Nearby Weather Stations

Station Location Temp. Windchill Dew Point Humidity Wind Precip. Elev Updated Type
                   

Watches & Warnings

There are currently no watches in effect.